createdAt,value
2023-01-28T00:01:18.173Z,78.03
2023-01-28T00:04:08.536Z,78.02
2023-01-28T00:06:58.751Z,78.01
2023-01-28T00:09:49.261Z,77.96
2023-01-28T00:12:39.779Z,77.85
2023-01-28T00:15:30.240Z,77.73
2023-01-28T00:18:21.248Z,77.61
2023-01-28T00:21:13.170Z,77.49
2023-01-28T00:24:23.775Z,77.30
2023-01-28T00:27:14.272Z,77.21
2023-01-28T00:30:04.989Z,77.21
2023-01-28T00:32:56.955Z,77.16
2023-01-28T00:35:47.245Z,77.14
2023-01-28T00:38:39.741Z,77.32
2023-01-28T00:41:31.138Z,77.37
2023-01-28T00:44:22.655Z,77.43
2023-01-28T00:47:13.071Z,77.36
2023-01-28T00:50:03.607Z,77.33
2023-01-28T00:52:55.349Z,77.24
2023-01-28T00:55:46.053Z,77.27
2023-01-28T00:58:36.710Z,77.38
2023-01-28T01:01:31.519Z,77.46
2023-01-28T01:04:27.032Z,77.59
2023-01-28T01:07:18.331Z,77.75
2023-01-28T01:10:11.895Z,77.90
2023-01-28T01:13:02.451Z,78.06
2023-01-28T01:16:02.270Z,78.23
2023-01-28T01:18:54.065Z,78.38
2023-01-28T01:21:44.545Z,78.37
2023-01-28T01:24:36.744Z,78.46
2023-01-28T01:27:26.816Z,78.56
2023-01-28T01:30:17.846Z,78.66
2023-01-28T01:33:08.427Z,78.82
2023-01-28T01:35:58.946Z,78.83
2023-01-28T01:38:53.927Z,78.77
2023-01-28T01:41:44.799Z,78.79
2023-01-28T01:44:57.131Z,78.73
2023-01-28T01:47:49.521Z,78.92
2023-01-28T01:50:41.290Z,79.05
2023-01-28T01:53:32.762Z,79.18
2023-01-28T01:56:26.125Z,79.33
2023-01-28T01:59:19.708Z,79.45
2023-01-28T02:02:11.275Z,79.61
2023-01-28T02:05:01.913Z,79.81
2023-01-28T02:07:55.584Z,80.01
2023-01-28T02:10:46.535Z,80.17
2023-01-28T02:13:40.387Z,80.42
2023-01-28T02:16:32.455Z,80.64
2023-01-28T02:19:26.313Z,80.82
2023-01-28T02:22:29.582Z,81.02
2023-01-28T02:25:36.342Z,81.27
2023-01-28T02:28:30.066Z,81.56
2023-01-28T02:31:26.159Z,81.89
2023-01-28T02:34:20.131Z,82.19
2023-01-28T02:37:14.147Z,82.63
2023-01-28T02:40:07.501Z,82.99
2023-01-28T02:42:58.025Z,83.30
2023-01-28T02:46:06.455Z,83.63
2023-01-28T02:48:56.996Z,84.02
2023-01-28T02:51:54.379Z,84.28
2023-01-28T02:54:49.405Z,84.64
2023-01-28T02:57:45.739Z,85.09
2023-01-28T03:00:41.489Z,85.38
2023-01-28T03:03:36.328Z,85.65
2023-01-28T03:06:30.104Z,85.79
2023-01-28T03:09:27.041Z,85.91
2023-01-28T03:12:37.923Z,86.10
2023-01-28T03:15:48.111Z,86.17
2023-01-28T03:18:59.001Z,86.16
2023-01-28T03:22:08.248Z,86.14
2023-01-28T03:25:17.267Z,86.22
2023-01-28T03:28:27.949Z,86.47
2023-01-28T03:31:39.089Z,86.76
2023-01-28T03:34:47.142Z,86.96
2023-01-28T03:37:39.167Z,87.22
2023-01-28T03:40:38.099Z,87.46
2023-01-28T03:43:29.706Z,87.62
2023-01-28T03:46:20.490Z,87.76
2023-01-28T03:49:11.020Z,87.83
2023-01-28T03:52:01.566Z,87.90
2023-01-28T03:54:53.188Z,87.90
2023-01-28T03:57:45.179Z,87.95
2023-01-28T04:00:42.220Z,88.04
2023-01-28T04:03:33.184Z,88.15
2023-01-28T04:06:29.113Z,88.22
2023-01-28T04:09:19.696Z,88.29
2023-01-28T04:12:27.568Z,88.25
2023-01-28T04:15:20.317Z,88.28
2023-01-28T04:18:13.343Z,88.29
2023-01-28T04:21:05.301Z,88.19
2023-01-28T04:23:55.950Z,88.27
2023-01-28T04:26:46.989Z,88.39
2023-01-28T04:29:38.460Z,88.53
2023-01-28T04:32:51.193Z,88.65
2023-01-28T04:35:52.555Z,88.88
2023-01-28T04:38:57.439Z,89.02
2023-01-28T04:41:56.898Z,89.24
2023-01-28T04:45:01.350Z,89.35
2023-01-28T04:48:10.595Z,89.45
2023-01-28T04:51:30.866Z,89.52
2023-01-28T04:54:33.175Z,89.61
2023-01-28T04:57:27.263Z,89.70
2023-01-28T05:00:18.785Z,89.77
2023-01-28T05:03:09.431Z,89.72
2023-01-28T05:06:00.026Z,89.71
2023-01-28T05:09:00.562Z,89.83
2023-01-28T05:11:51.322Z,89.97
2023-01-28T05:14:42.366Z,90.16
2023-01-28T05:17:44.395Z,90.32
2023-01-28T05:20:36.285Z,90.48
2023-01-28T05:23:27.518Z,90.59
2023-01-28T05:26:22.851Z,90.80
2023-01-28T05:29:33.181Z,90.90
2023-01-28T05:32:23.640Z,90.93
2023-01-28T05:35:14.822Z,90.89
2023-01-28T05:38:05.655Z,90.87
2023-01-28T05:40:56.762Z,90.94
2023-01-28T05:43:47.530Z,91.00
2023-01-28T05:46:58.048Z,90.89
2023-01-28T05:50:08.170Z,90.85
2023-01-28T05:53:08.228Z,90.84
2023-01-28T05:56:00.022Z,90.82
2023-01-28T05:58:51.377Z,90.88
2023-01-28T06:01:42.237Z,90.87
2023-01-28T06:04:32.587Z,90.92
2023-01-28T06:07:24.231Z,90.88
2023-01-28T06:10:15.132Z,90.98
2023-01-28T06:13:08.650Z,91.17
2023-01-28T06:16:28.602Z,91.44
2023-01-28T06:19:27.699Z,91.75
2023-01-28T06:22:19.963Z,91.97
2023-01-28T06:25:11.205Z,92.18
2023-01-28T06:28:01.859Z,92.23
2023-01-28T06:30:52.620Z,92.40
2023-01-28T06:33:43.231Z,92.65
2023-01-28T06:36:33.640Z,92.75
2023-01-28T06:39:24.308Z,92.80
2023-01-28T06:42:15.080Z,92.75
2023-01-28T06:45:05.686Z,92.73
2023-01-28T06:47:56.247Z,92.68
2023-01-28T06:50:47.828Z,92.81
2023-01-28T06:53:38.549Z,92.89
2023-01-28T06:56:28.832Z,92.95
2023-01-28T06:59:19.195Z,93.03
2023-01-28T07:02:11.197Z,93.08
2023-01-28T07:05:02.560Z,93.11
2023-01-28T07:07:53.275Z,93.15
2023-01-28T07:10:44.502Z,93.18
2023-01-28T07:13:35.022Z,93.22
2023-01-28T07:16:25.323Z,93.25
2023-01-28T07:19:16.198Z,93.21
2023-01-28T07:22:06.752Z,93.32
2023-01-28T07:24:59.139Z,93.44
2023-01-28T07:27:51.059Z,93.65
2023-01-28T07:30:41.219Z,93.85
2023-01-28T07:33:31.667Z,94.03
2023-01-28T07:36:22.171Z,94.37
2023-01-28T07:39:12.602Z,94.55
2023-01-28T07:42:03.256Z,94.59
2023-01-28T07:44:58.795Z,94.56
2023-01-28T07:47:55.987Z,94.46
2023-01-28T07:50:48.675Z,94.39
2023-01-28T07:53:39.125Z,94.14
2023-01-28T07:56:31.934Z,93.82
2023-01-28T07:59:22.381Z,93.84
2023-01-28T08:02:14.096Z,93.77
2023-01-28T08:05:04.932Z,93.69
2023-01-28T08:07:55.686Z,93.73
2023-01-28T08:10:46.795Z,93.79
2023-01-28T08:13:37.509Z,93.94
2023-01-28T08:16:28.832Z,94.02
2023-01-28T08:19:21.980Z,94.15
2023-01-28T08:22:13.201Z,94.36
2023-01-28T08:25:03.584Z,94.47
2023-01-28T08:27:54.648Z,94.56
2023-01-28T08:30:45.115Z,94.56
2023-01-28T08:33:35.530Z,94.54
2023-01-28T08:36:25.964Z,94.36
2023-01-28T08:39:16.187Z,94.20
2023-01-28T08:42:08.165Z,93.91
2023-01-28T08:44:58.681Z,93.72
2023-01-28T08:47:55.410Z,93.69
2023-01-28T08:50:48.659Z,93.71
2023-01-28T08:53:39.149Z,93.73
2023-01-28T08:56:30.595Z,93.84
2023-01-28T08:59:21.927Z,93.96
2023-01-28T09:02:29.250Z,93.96
2023-01-28T09:05:23.341Z,93.99
2023-01-28T09:08:14.650Z,93.91
2023-01-28T09:11:05.271Z,93.77
2023-01-28T09:13:55.903Z,93.61
2023-01-28T09:16:46.436Z,93.52
2023-01-28T09:19:37.692Z,93.49
2023-01-28T09:22:28.213Z,93.24
2023-01-28T09:25:18.781Z,92.84
2023-01-28T09:28:09.298Z,92.62
2023-01-28T09:31:03.973Z,92.41
2023-01-28T09:33:57.391Z,92.27
2023-01-28T09:36:48.833Z,92.10
2023-01-28T09:39:39.500Z,91.71
2023-01-28T09:42:38.859Z,91.54
2023-01-28T09:48:45.467Z,91.47
2023-01-28T09:51:38.107Z,91.27
2023-01-28T09:54:31.777Z,91.25
2023-01-28T09:57:24.111Z,91.31
2023-01-28T10:00:18.867Z,91.06
2023-01-28T10:03:14.693Z,90.70
2023-01-28T10:06:14.574Z,90.50
2023-01-28T10:09:16.606Z,90.41
2023-01-28T10:12:14.165Z,90.44
2023-01-28T10:15:26.598Z,90.30
2023-01-28T10:18:18.377Z,90.60
2023-01-28T10:21:27.733Z,90.88
2023-01-28T10:24:19.999Z,91.23
2023-01-28T10:27:14.023Z,91.37
2023-01-28T10:30:17.512Z,91.78
2023-01-28T10:33:16.812Z,91.81
2023-01-28T10:36:09.042Z,91.80
2023-01-28T10:38:59.747Z,92.04
2023-01-28T10:41:57.929Z,92.21
2023-01-28T10:44:49.615Z,92.30
2023-01-28T10:47:42.453Z,92.25
2023-01-28T10:50:33.300Z,91.72
2023-01-28T10:53:34.966Z,91.48
2023-01-28T10:56:27.028Z,91.27
2023-01-28T10:59:26.053Z,90.92
2023-01-28T11:02:28.116Z,90.67
2023-01-28T11:05:21.145Z,90.65
2023-01-28T11:08:14.681Z,90.69
2023-01-28T11:11:15.260Z,90.57
2023-01-28T11:14:05.611Z,90.30
2023-01-28T11:16:57.560Z,90.05
2023-01-28T11:19:47.969Z,89.86
2023-01-28T11:22:40.840Z,89.57
2023-01-28T11:25:32.829Z,89.44
2023-01-28T11:28:24.289Z,88.68
2023-01-28T11:31:16.579Z,87.96
2023-01-28T11:34:07.545Z,87.29
2023-01-28T11:37:12.553Z,86.91
2023-01-28T11:40:20.071Z,87.05
2023-01-28T11:43:11.700Z,87.28
2023-01-28T11:46:10.134Z,87.12
2023-01-28T11:49:07.845Z,86.44
2023-01-28T11:52:03.752Z,86.00
2023-01-28T11:54:59.377Z,85.81
2023-01-28T11:57:52.633Z,85.39
2023-01-28T12:00:48.477Z,85.60
2023-01-28T12:04:03.092Z,85.90
2023-01-28T12:07:02.613Z,86.25
2023-01-28T12:09:57.339Z,86.60
2023-01-28T12:12:56.254Z,86.85
2023-01-28T12:16:00.511Z,86.87
2023-01-28T12:19:11.582Z,87.28
2023-01-28T12:22:09.200Z,87.55
2023-01-28T12:25:15.724Z,88.11
2023-01-28T12:28:10.127Z,88.10
2023-01-28T12:31:09.085Z,88.36
2023-01-28T12:34:06.201Z,88.35
2023-01-28T12:37:03.651Z,88.21
2023-01-28T12:40:01.304Z,88.21
2023-01-28T12:42:54.618Z,88.21
2023-01-28T12:45:46.809Z,88.30
2023-01-28T12:48:41.137Z,88.54
2023-01-28T12:51:35.781Z,88.81
2023-01-28T12:54:29.366Z,88.88
2023-01-28T12:57:22.734Z,88.68
2023-01-28T13:00:21.295Z,88.24
2023-01-28T13:03:16.275Z,87.49
2023-01-28T13:06:10.263Z,86.89
2023-01-28T13:09:02.240Z,86.40
2023-01-28T13:11:58.418Z,85.97
2023-01-28T13:14:49.554Z,86.28
2023-01-28T13:17:40.125Z,86.05
2023-01-28T13:20:37.790Z,85.47
2023-01-28T13:23:38.221Z,85.05
2023-01-28T13:26:37.838Z,84.77
2023-01-28T13:29:33.176Z,84.22
2023-01-28T13:32:32.275Z,84.12
2023-01-28T13:35:31.347Z,84.06
2023-01-28T13:38:22.524Z,84.12
2023-01-28T13:41:12.972Z,84.39
2023-01-28T13:44:03.874Z,84.11
2023-01-28T13:46:55.124Z,84.12
2023-01-28T13:49:47.232Z,84.46
2023-01-28T13:52:38.951Z,85.25
2023-01-28T13:55:43.549Z,85.64
2023-01-28T13:58:59.064Z,85.85
2023-01-28T14:01:58.887Z,86.06
2023-01-28T14:04:58.139Z,86.62
2023-01-28T14:08:11.271Z,87.00
2023-01-28T14:11:07.966Z,87.39
2023-01-28T14:14:08.898Z,87.58
2023-01-28T14:17:01.779Z,87.88
2023-01-28T14:19:54.485Z,88.23
2023-01-28T14:22:45.343Z,88.59
2023-01-28T14:25:40.642Z,89.00
2023-01-28T14:28:36.067Z,88.99
2023-01-28T14:31:29.195Z,89.14
2023-01-28T14:34:23.880Z,89.21
2023-01-28T14:37:16.489Z,89.31
2023-01-28T14:40:08.714Z,89.11
2023-01-28T14:43:00.792Z,88.86
2023-01-28T14:46:01.837Z,89.01
2023-01-28T14:49:12.237Z,88.98
2023-01-28T14:52:10.511Z,89.04
2023-01-28T14:55:09.650Z,89.08
2023-01-28T14:58:01.285Z,88.76
2023-01-28T15:00:59.467Z,88.97
2023-01-28T15:03:49.792Z,89.08
2023-01-28T15:06:40.421Z,89.07
2023-01-28T15:09:30.857Z,88.97
2023-01-28T15:12:21.467Z,89.09
2023-01-28T15:15:14.023Z,89.10
2023-01-28T15:18:05.724Z,89.18
2023-01-28T15:20:57.420Z,89.28
2023-01-28T15:23:50.428Z,89.17
2023-01-28T15:26:41.062Z,89.13
2023-01-28T15:29:35.393Z,89.17
2023-01-28T15:32:26.893Z,89.40
2023-01-28T15:35:17.417Z,89.36
2023-01-28T15:38:09.234Z,89.33
2023-01-28T15:41:00.707Z,89.50
2023-01-28T15:43:52.742Z,89.93
2023-01-28T15:46:43.148Z,90.06
2023-01-28T15:49:35.596Z,90.57
2023-01-28T15:52:32.451Z,90.88
2023-01-28T15:55:36.999Z,91.11
2023-01-28T15:58:33.772Z,91.42
2023-01-28T16:01:24.710Z,91.74
2023-01-28T16:04:25.103Z,91.68
2023-01-28T16:07:18.150Z,91.68
2023-01-28T16:10:20.596Z,91.72
2023-01-28T16:13:17.688Z,91.84
2023-01-28T16:16:09.692Z,92.05
2023-01-28T16:19:00.702Z,92.27
2023-01-28T16:21:51.188Z,92.58
2023-01-28T16:25:19.349Z,92.89
2023-01-28T16:28:15.372Z,93.19
2023-01-28T16:31:07.712Z,93.52
2023-01-28T16:33:58.185Z,93.49
2023-01-28T16:36:48.674Z,93.51
2023-01-28T16:39:39.061Z,93.57
2023-01-28T16:42:29.634Z,93.78
2023-01-28T16:45:22.849Z,93.93
2023-01-28T16:48:13.758Z,93.94
2023-01-28T16:51:05.148Z,93.92
2023-01-28T16:53:56.204Z,94.02
2023-01-28T16:56:47.192Z,94.24
2023-01-28T16:59:38.003Z,94.32
2023-01-28T17:02:28.690Z,94.46
2023-01-28T17:05:20.028Z,94.62
2023-01-28T17:08:10.692Z,94.78
2023-01-28T17:11:01.078Z,94.79
2023-01-28T17:13:51.780Z,94.85
2023-01-28T17:16:42.362Z,95.02
2023-01-28T17:19:33.800Z,95.18
2023-01-28T17:22:24.342Z,95.31
2023-01-28T17:25:15.848Z,95.47
2023-01-28T17:28:06.736Z,95.70
2023-01-28T17:30:57.420Z,95.86
2023-01-28T17:33:47.993Z,95.82
2023-01-28T17:36:39.661Z,95.77
2023-01-28T17:39:30.334Z,95.72
2023-01-28T17:42:23.250Z,95.80
2023-01-28T17:45:14.407Z,95.96
2023-01-28T17:48:08.195Z,96.18
2023-01-28T17:51:01.855Z,96.30
2023-01-28T17:53:53.684Z,96.38
2023-01-28T17:56:44.039Z,96.21
2023-01-28T17:59:35.117Z,96.13
2023-01-28T18:02:25.294Z,96.09
2023-01-28T18:05:16.528Z,96.19
2023-01-28T18:08:07.454Z,96.25
2023-01-28T18:10:57.898Z,96.08
2023-01-28T18:13:48.787Z,95.93
2023-01-28T18:16:39.487Z,95.99
2023-01-28T18:19:30.113Z,96.03
2023-01-28T18:22:28.807Z,95.95
2023-01-28T18:25:27.407Z,96.06
2023-01-28T18:28:18.097Z,96.33
2023-01-28T18:31:09.344Z,96.50
2023-01-28T18:34:00.034Z,96.73
2023-01-28T18:36:50.583Z,97.00
2023-01-28T18:39:42.259Z,97.16
2023-01-28T18:42:34.021Z,97.17
2023-01-28T18:45:24.996Z,97.24
2023-01-28T18:48:15.269Z,97.22
2023-01-28T18:51:17.466Z,97.26
2023-01-28T18:54:20.919Z,97.61
2023-01-28T18:57:11.066Z,97.80
2023-01-28T19:00:01.879Z,97.90
2023-01-28T19:02:52.865Z,97.78
2023-01-28T19:05:43.546Z,97.76
2023-01-28T19:08:36.921Z,97.55
2023-01-28T19:11:27.917Z,97.39
2023-01-28T19:14:18.914Z,97.27
2023-01-28T19:17:09.475Z,97.30
2023-01-28T19:20:02.963Z,97.27
2023-01-28T19:22:55.718Z,97.24
2023-01-28T19:25:46.288Z,97.17
2023-01-28T19:28:36.979Z,97.26
2023-01-28T19:31:28.114Z,97.47
2023-01-28T19:34:18.773Z,97.58
2023-01-28T19:37:09.343Z,97.66
2023-01-28T19:39:59.876Z,97.84
2023-01-28T19:42:53.020Z,97.91
2023-01-28T19:45:43.579Z,97.93
2023-01-28T19:48:34.500Z,98.03
2023-01-28T19:51:25.086Z,98.21
2023-01-28T19:54:16.896Z,98.19
2023-01-28T19:57:07.284Z,97.93
2023-01-28T19:59:57.680Z,98.00
2023-01-28T20:02:51.176Z,97.86
2023-01-28T20:05:41.733Z,97.69
2023-01-28T20:08:32.226Z,97.62
2023-01-28T20:11:23.769Z,97.56
2023-01-28T20:14:18.454Z,97.50
2023-01-28T20:17:08.642Z,97.48
2023-01-28T20:19:59.235Z,97.42
2023-01-28T20:22:49.635Z,97.50
2023-01-28T20:25:40.089Z,97.65
2023-01-28T20:28:30.584Z,97.62
2023-01-28T20:31:21.594Z,97.80
2023-01-28T20:34:15.058Z,97.87
2023-01-28T20:37:06.746Z,97.90
2023-01-28T20:39:57.214Z,98.13
2023-01-28T20:42:47.591Z,98.14
2023-01-28T20:45:37.955Z,98.12
2023-01-28T20:48:28.519Z,98.10
2023-01-28T20:51:20.369Z,98.09
2023-01-28T20:54:12.859Z,98.07
2023-01-28T20:57:03.278Z,97.97
2023-01-28T20:59:53.558Z,97.84
2023-01-28T21:02:46.101Z,97.93
2023-01-28T21:05:36.562Z,97.84
2023-01-28T21:08:27.059Z,97.82
2023-01-28T21:11:17.393Z,97.84
2023-01-28T21:14:12.242Z,97.92
2023-01-28T21:17:02.764Z,98.09
2023-01-28T21:19:53.400Z,98.21
2023-01-28T21:22:43.848Z,98.23
2023-01-28T21:25:34.446Z,98.59
2023-01-28T21:28:26.995Z,98.68
2023-01-28T21:31:18.909Z,98.40
2023-01-28T21:34:10.129Z,98.07
2023-01-28T21:37:00.188Z,97.86
2023-01-28T21:39:51.080Z,97.40
2023-01-28T21:42:41.738Z,97.06
2023-01-28T21:45:32.287Z,96.87
2023-01-28T21:48:22.941Z,96.74
2023-01-28T21:51:31.247Z,96.69
2023-01-28T21:54:21.969Z,96.65
2023-01-28T21:57:12.387Z,96.69
2023-01-28T22:00:02.917Z,96.76
2023-01-28T22:03:13.382Z,96.85
2023-01-28T22:06:03.902Z,96.90
2023-01-28T22:08:54.513Z,96.89
2023-01-28T22:11:45.684Z,96.85
2023-01-28T22:14:36.152Z,96.77
2023-01-28T22:17:26.786Z,96.74
2023-01-28T22:20:17.749Z,96.60
2023-01-28T22:23:08.517Z,96.45
2023-01-28T22:25:59.601Z,96.43
2023-01-28T22:28:49.947Z,96.13
2023-01-28T22:31:40.653Z,95.97
2023-01-28T22:34:31.073Z,95.74
2023-01-28T22:37:21.493Z,95.66
2023-01-28T22:40:13.676Z,95.67
2023-01-28T22:43:04.737Z,95.65
2023-01-28T22:46:00.646Z,95.70
2023-01-28T22:48:51.327Z,95.74
2023-01-28T22:51:41.850Z,95.86
2023-01-28T22:54:32.437Z,96.03
2023-01-28T22:57:22.915Z,96.09
2023-01-28T23:00:15.404Z,96.21
2023-01-28T23:03:06.142Z,96.30
2023-01-28T23:06:00.356Z,96.35
2023-01-28T23:08:51.895Z,96.44
2023-01-28T23:11:41.962Z,96.38
2023-01-28T23:14:50.121Z,96.37
2023-01-28T23:17:58.348Z,96.35
2023-01-28T23:21:06.234Z,96.16
2023-01-28T23:24:14.242Z,96.16
2023-01-28T23:27:04.886Z,96.13
2023-01-28T23:29:56.608Z,96.33
2023-01-28T23:32:49.752Z,96.31
2023-01-28T23:35:40.247Z,96.29
2023-01-28T23:38:30.611Z,96.28
2023-01-28T23:41:21.168Z,96.40
2023-01-28T23:44:11.490Z,96.43
2023-01-28T23:47:02.175Z,96.40
2023-01-28T23:49:52.685Z,96.12
2023-01-28T23:52:43.174Z,95.92
2023-01-28T23:55:33.650Z,95.68
2023-01-28T23:58:42.166Z,95.68
